Time;durP1;ratioP1;P1;durP2;ratioP2;P2;SDS_P1;SDS_P2;PMS_P1;PMS_P2;Temp;Humidity;BMP_temperature;BMP_pressure;BME280_temperature;BME280_humidity;BME280_pressure;Samples;Min_cycle;Max_cycle;Signal;HPM_P1;HPM_P2
2023/06/07 00:02:11;;;;;;;8.10;5.55;;;;;;;25.81;54.85;99135.91;5094073;28;20027;-73
2023/06/07 00:04:39;;;;;;;6.40;5.15;;;;;;;25.80;54.75;99128.88;5094406;28;20499;-72
2023/06/07 00:07:05;;;;;;;6.80;5.30;;;;;;;25.78;55.00;99134.34;5094274;28;20484;-72
2023/06/07 00:09:30;;;;;;;7.35;5.28;;;;;;;25.76;55.13;99132.78;5094021;28;20511;-72
2023/06/07 00:11:56;;;;;;;6.35;5.28;;;;;;;25.75;55.00;99129.25;5090680;28;20027;-72
2023/06/07 00:14:22;;;;;;;6.10;5.05;;;;;;;25.77;54.79;99118.44;5074001;28;20070;-73
2023/06/07 00:16:50;;;;;;;7.88;5.22;;;;;;;25.76;54.82;99127.44;5073410;28;20025;-72
2023/06/07 00:19:20;;;;;;;7.32;5.35;;;;;;;25.75;55.07;99121.25;5073947;28;20042;-72
2023/06/07 00:21:49;;;;;;;6.60;5.22;;;;;;;25.73;55.03;99132.06;5073883;28;20025;-72
2023/06/07 00:24:16;;;;;;;6.03;4.90;;;;;;;25.72;54.94;99117.00;5071702;28;20021;-72
2023/06/07 00:26:42;;;;;;;6.47;5.38;;;;;;;25.69;54.80;99122.63;5073881;28;20028;-73
2023/06/07 00:29:07;;;;;;;7.30;5.13;;;;;;;25.70;55.02;99112.78;5073781;28;20025;-72
2023/06/07 00:31:33;;;;;;;7.20;5.07;;;;;;;25.68;55.05;99109.41;5073408;28;20111;-73
2023/06/07 00:33:58;;;;;;;5.90;4.93;;;;;;;25.69;55.18;99116.44;5073544;28;20074;-72
2023/06/07 00:36:25;;;;;;;6.68;5.20;;;;;;;25.63;55.24;99117.81;5076023;28;20074;-73
2023/06/07 00:38:50;;;;;;;6.00;4.88;;;;;;;25.66;55.13;99117.53;5082081;28;20024;-72
2023/06/07 00:41:16;;;;;;;6.38;5.38;;;;;;;25.64;55.20;99122.19;5073336;28;20028;-73
2023/06/07 00:43:42;;;;;;;6.18;5.35;;;;;;;25.63;54.91;99125.84;5073396;28;20020;-73
2023/06/07 00:46:09;;;;;;;7.82;5.40;;;;;;;25.63;55.06;99120.50;5081317;28;20024;-72
2023/06/07 00:48:35;;;;;;;6.03;4.90;;;;;;;25.61;54.93;99119.75;5093648;28;20065;-72
2023/06/07 00:51:00;;;;;;;8.02;5.40;;;;;;;25.57;55.19;99105.00;5093660;28;20020;-73
2023/06/07 00:53:27;;;;;;;6.70;5.20;;;;;;;25.60;54.88;99102.03;5093460;28;20506;-73
2023/06/07 00:55:53;;;;;;;6.13;5.13;;;;;;;25.60;55.17;99097.56;5093182;28;20086;-73
2023/06/07 00:58:19;;;;;;;8.43;5.07;;;;;;;25.58;55.22;99104.00;5093190;28;20552;-73
2023/06/07 01:00:46;;;;;;;6.47;4.90;;;;;;;25.59;55.19;99095.00;5093018;28;20031;-72
2023/06/07 01:03:12;;;;;;;6.32;5.18;;;;;;;25.57;54.96;99086.31;5093268;28;20040;-73
2023/06/07 01:05:38;;;;;;;7.13;5.25;;;;;;;25.56;55.22;99079.28;5093179;28;20016;-73
2023/06/07 01:08:04;;;;;;;6.18;5.10;;;;;;;25.55;55.20;99082.91;5093381;28;20031;-72
2023/06/07 01:10:30;;;;;;;6.50;5.32;;;;;;;25.56;55.18;99084.63;5093244;28;20705;-71
2023/06/07 01:12:56;;;;;;;5.80;4.93;;;;;;;25.53;55.15;99084.84;5093149;28;20020;-73
2023/06/07 01:15:23;;;;;;;6.50;5.10;;;;;;;25.51;55.08;99078.78;5072223;28;20031;-73
2023/06/07 01:17:51;;;;;;;6.90;5.40;;;;;;;25.52;55.15;99072.47;5072691;28;20492;-73
2023/06/07 01:20:24;;;;;;;5.68;4.55;;;;;;;25.52;54.92;99078.63;5072571;28;20055;-73
2023/06/07 01:22:51;;;;;;;6.63;5.50;;;;;;;25.52;55.09;99088.50;5072674;28;20112;-72
2023/06/07 01:25:17;;;;;;;6.50;5.60;;;;;;;25.53;54.85;99090.19;5087836;28;20028;-73
2023/06/07 01:27:45;;;;;;;5.95;5.00;;;;;;;25.51;55.15;99094.81;5091215;28;20031;-72
2023/06/07 01:30:12;;;;;;;6.38;5.18;;;;;;;25.51;55.05;99086.81;5091494;28;20400;-73
2023/06/07 01:32:40;;;;;;;6.40;4.85;;;;;;;25.51;55.18;99086.81;5091099;28;20024;-73
2023/06/07 01:35:08;;;;;;;6.88;5.13;;;;;;;25.50;55.23;99082.41;5086480;28;20024;-72
2023/06/07 01:37:35;;;;;;;6.85;4.97;;;;;;;25.51;55.20;99084.13;5092153;28;20042;-72
2023/06/07 01:40:03;;;;;;;7.45;5.47;;;;;;;25.53;55.15;99074.16;5092544;28;20032;-73
2023/06/07 01:42:29;;;;;;;6.20;5.05;;;;;;;25.47;54.84;99065.69;5092209;28;20028;-73
2023/06/07 01:44:56;;;;;;;6.75;5.05;;;;;;;25.45;55.18;99062.31;5092598;28;20094;-73
2023/06/07 01:47:22;;;;;;;8.10;4.80;;;;;;;25.47;54.89;99060.34;5092308;28;20376;-73
2023/06/07 01:49:48;;;;;;;6.47;5.18;;;;;;;25.47;55.10;99065.69;5092493;28;20027;-73
2023/06/07 01:52:13;;;;;;;7.50;4.80;;;;;;;25.44;55.05;99068.63;5090118;28;20488;-73
2023/06/07 01:54:39;;;;;;;6.47;4.70;;;;;;;25.46;55.19;99069.34;5080483;28;20085;-73
2023/06/07 01:57:21;;;;;;;6.22;4.97;;;;;;;25.45;54.93;99061.44;5071684;28;20044;-73
2023/06/07 02:00:06;;;;;;;5.50;4.50;;;;;;;25.42;54.98;99051.88;5071940;28;20103;-72
2023/06/07 02:02:41;;;;;;;6.00;4.70;;;;;;;25.43;54.79;99050.06;5072244;28;20107;-73
2023/06/07 02:05:15;;;;;;;7.28;5.40;;;;;;;25.42;54.80;99043.88;5072085;28;20095;-73
2023/06/07 02:07:47;;;;;;;7.50;5.13;;;;;;;25.40;55.15;99045.84;5071778;28;20031;-73
2023/06/07 02:10:16;;;;;;;6.05;4.95;;;;;;;25.41;55.11;99044.84;5075200;28;20028;-73
2023/06/07 02:12:42;;;;;;;6.13;4.88;;;;;;;25.39;54.90;99041.47;5091736;28;20396;-73
2023/06/07 02:15:09;;;;;;;6.18;5.50;;;;;;;25.40;55.18;99036.97;5092295;28;20093;-73
2023/06/07 02:17:47;;;;;;;6.13;4.57;;;;;;;25.39;55.14;99041.47;5092104;28;20032;-73
2023/06/07 02:20:13;;;;;;;7.05;5.78;;;;;;;25.40;54.79;99039.63;5092090;28;20024;-72
2023/06/07 02:22:38;;;;;;;6.13;4.70;;;;;;;25.38;54.80;99047.81;5092124;28;20081;-73
2023/06/07 02:25:04;;;;;;;8.07;5.65;;;;;;;25.37;55.02;99048.75;5088961;28;20024;-72
2023/06/07 02:27:29;;;;;;;6.72;5.53;;;;;;;25.36;54.85;99049.75;5091691;28;20028;-72
2023/06/07 02:29:54;;;;;;;6.20;4.72;;;;;;;25.34;55.08;99049.88;5092133;28;20492;-73
2023/06/07 02:32:20;;;;;;;6.50;4.75;;;;;;;25.36;55.07;99044.41;5124874;28;20073;-73
2023/06/07 02:34:47;;;;;;;5.97;5.00;;;;;;;25.35;54.84;99034.69;5091882;28;20051;-73
2023/06/07 02:37:13;;;;;;;8.35;5.10;;;;;;;25.35;54.76;99037.38;5092000;28;20392;-73
2023/06/07 02:39:38;;;;;;;5.55;4.70;;;;;;;25.32;55.00;99034.94;5091816;28;20042;-73
2023/06/07 02:42:04;;;;;;;6.85;5.18;;;;;;;25.30;55.05;99032.44;5091500;28;20361;-72
2023/06/07 02:44:30;;;;;;;6.50;4.88;;;;;;;25.32;55.00;99030.47;5079886;28;20404;-73
2023/06/07 02:46:55;;;;;;;6.72;4.93;;;;;;;25.29;54.89;99029.88;5087008;28;20027;-73
2023/06/07 02:49:21;;;;;;;6.90;4.97;;;;;;;25.26;55.01;99028.31;5095814;28;20048;-73
2023/06/07 02:51:46;;;;;;;5.88;4.63;;;;;;;25.27;54.76;99027.34;5096002;28;20029;-73
2023/06/07 02:54:13;;;;;;;7.65;5.32;;;;;;;25.28;55.04;99033.53;5095861;28;20020;-73
2023/06/07 02:56:38;;;;;;;6.93;5.00;;;;;;;25.29;55.09;99029.88;5095497;28;20716;-73
2023/06/07 02:59:04;;;;;;;7.32;5.22;;;;;;;25.27;54.90;99031.84;5095054;28;20028;-73
2023/06/07 03:01:33;;;;;;;5.45;4.40;;;;;;;25.26;55.13;99032.81;5095672;28;20061;-73
2023/06/07 03:03:58;;;;;;;7.15;4.63;;;;;;;25.26;54.83;99030.13;5095593;28;20031;-73
2023/06/07 03:06:29;;;;;;;6.57;5.05;;;;;;;25.23;54.97;99030.41;5095593;28;20119;-73
2023/06/07 03:08:55;;;;;;;7.18;4.70;;;;;;;25.24;54.74;99021.44;5095222;28;20521;-73
2023/06/07 03:11:21;;;;;;;7.35;4.85;;;;;;;25.24;55.03;99026.75;5095218;28;20020;-73
2023/06/07 03:13:46;;;;;;;8.27;4.97;;;;;;;25.25;54.79;99023.97;5095276;28;20089;-72
2023/06/07 03:16:12;;;;;;;7.57;5.45;;;;;;;25.24;54.99;99021.44;5095507;28;20081;-73
2023/06/07 03:18:37;;;;;;;6.07;4.63;;;;;;;25.23;54.67;99019.75;5093979;28;20028;-73
2023/06/07 03:21:02;;;;;;;6.63;4.93;;;;;;;25.24;54.63;99016.94;5092327;28;20017;-72
2023/06/07 03:23:29;;;;;;;6.93;5.32;;;;;;;25.20;54.90;99026.19;5083621;28;20766;-72
2023/06/07 03:25:57;;;;;;;6.72;4.82;;;;;;;25.17;54.97;99029.09;5094933;28;20024;-73
2023/06/07 03:28:22;;;;;;;8.27;4.78;;;;;;;25.21;54.57;99030.53;5095113;28;20023;-72
2023/06/07 03:30:48;;;;;;;6.72;4.97;;;;;;;25.17;54.66;99027.28;5095030;28;20105;-73
2023/06/07 03:33:13;;;;;;;6.72;4.95;;;;;;;25.19;54.64;99025.34;5081458;28;20032;-73
2023/06/07 03:35:44;;;;;;;6.43;4.68;;;;;;;25.19;54.88;99025.34;5074776;28;20396;-72
2023/06/07 03:38:09;;;;;;;6.82;4.53;;;;;;;25.16;54.57;99025.59;5075190;28;20142;-73
2023/06/07 03:40:35;;;;;;;5.15;4.47;;;;;;;25.14;54.89;99019.53;5086354;28;20132;-73
2023/06/07 03:43:01;;;;;;;5.72;4.63;;;;;;;25.16;54.76;99030.09;5074805;28;20024;-73
2023/06/07 03:45:27;;;;;;;6.53;5.25;;;;;;;25.15;54.60;99023.94;5076866;28;20028;-73
2023/06/07 03:47:53;;;;;;;7.97;5.07;;;;;;;25.14;54.65;99027.53;5094975;28;20030;-73
2023/06/07 03:50:20;;;;;;;7.20;5.22;;;;;;;25.12;54.82;99028.69;5094883;28;20157;-73
2023/06/07 03:52:45;;;;;;;5.40;4.57;;;;;;;25.13;54.61;99020.53;5094269;28;20079;-73
2023/06/07 03:55:11;;;;;;;5.90;4.82;;;;;;;25.10;54.67;99026.13;5094530;28;20433;-73
2023/06/07 03:57:37;;;;;;;7.05;4.82;;;;;;;25.11;54.63;99022.47;5094616;28;20044;-73
2023/06/07 04:00:11;;;;;;;6.20;4.68;;;;;;;25.08;54.66;99022.72;5093513;28;20036;-73
2023/06/07 04:02:37;;;;;;;6.10;4.28;;;;;;;25.09;54.58;99024.44;5094365;28;20435;-72
2023/06/07 04:05:03;;;;;;;6.47;4.72;;;;;;;25.07;54.72;99026.38;5094468;28;20034;-73
2023/06/07 04:07:28;;;;;;;6.43;4.70;;;;;;;25.07;54.77;99023.72;5094271;28;20024;-73
2023/06/07 04:09:54;;;;;;;6.55;4.63;;;;;;;25.07;54.82;99023.72;5094532;28;20092;-73
2023/06/07 04:12:20;;;;;;;6.85;4.80;;;;;;;25.06;54.83;99030.03;5094288;28;20028;-72
2023/06/07 04:14:45;;;;;;;6.13;4.90;;;;;;;25.08;54.75;99038.75;5094109;28;20028;-72
2023/06/07 04:17:11;;;;;;;6.97;4.88;;;;;;;25.07;54.96;99037.06;5094360;28;20024;-73
2023/06/07 04:19:36;;;;;;;7.82;4.72;;;;;;;25.07;54.72;99037.91;5094360;28;20043;-72
2023/06/07 04:22:04;;;;;;;7.03;4.55;;;;;;;25.05;54.73;99039.03;5093640;28;20052;-72
2023/06/07 04:24:32;;;;;;;5.78;4.65;;;;;;;25.06;54.82;99046.06;5094195;28;20028;-72
2023/06/07 04:26:58;;;;;;;6.35;4.63;;;;;;;25.05;54.66;99044.38;5084734;28;20112;-73
2023/06/07 04:29:27;;;;;;;8.40;5.10;;;;;;;25.05;54.60;99044.38;5073872;28;20066;-73
2023/06/07 04:31:56;;;;;;;6.90;4.88;;;;;;;25.04;54.47;99043.50;5073959;28;20472;-73
2023/06/07 04:34:25;;;;;;;8.00;5.00;;;;;;;25.05;54.67;99044.38;5073796;28;20454;-73
2023/06/07 04:36:52;;;;;;;8.27;5.05;;;;;;;25.06;54.44;99046.06;5073373;28;20024;-72
2023/06/07 04:39:18;;;;;;;6.72;5.25;;;;;;;25.06;54.54;99041.56;5082033;28;20031;-72
2023/06/07 04:41:45;;;;;;;7.38;4.95;;;;;;;25.08;54.26;99046.75;5093795;28;20412;-73
2023/06/07 04:44:11;;;;;;;7.18;4.80;;;;;;;25.09;54.67;99043.13;5093889;28;20024;-72
2023/06/07 04:46:39;;;;;;;7.07;4.90;;;;;;;25.05;54.45;99039.03;5093694;28;20024;-72
2023/06/07 04:49:05;;;;;;;6.55;4.88;;;;;;;25.04;54.55;99042.69;5083889;28;20029;-72
2023/06/07 04:51:30;;;;;;;8.13;4.78;;;;;;;25.06;54.47;99036.22;5073037;28;20107;-72
2023/06/07 04:54:04;;;;;;;6.65;4.82;;;;;;;25.07;54.24;99035.25;5073266;28;20060;-72
2023/06/07 04:56:30;;;;;;;6.43;4.90;;;;;;;25.06;54.14;99030.03;5073335;28;20047;-72
2023/06/07 04:58:56;;;;;;;8.13;5.28;;;;;;;25.05;54.51;99033.69;5077068;28;20028;-72
2023/06/07 05:01:22;;;;;;;6.93;4.47;;;;;;;25.08;54.56;99025.41;5092044;28;20028;-73
2023/06/07 05:03:49;;;;;;;6.60;5.18;;;;;;;25.06;54.35;99035.38;5093556;28;20036;-72
2023/06/07 05:06:18;;;;;;;5.70;4.72;;;;;;;25.06;54.37;99036.22;5093469;28;20425;-73
2023/06/07 05:08:45;;;;;;;6.50;4.90;;;;;;;25.02;54.24;99039.28;5092355;28;20107;-73
2023/06/07 05:11:11;;;;;;;9.23;4.68;;;;;;;25.02;54.64;99039.28;5108416;28;20020;-73
2023/06/07 05:13:36;;;;;;;10.98;5.60;;;;;;;25.02;54.74;99039.28;5090507;28;20647;-73
2023/06/07 05:16:02;;;;;;;7.55;4.90;;;;;;;25.04;54.56;99042.69;5091415;28;20669;-73
2023/06/07 05:18:28;;;;;;;10.70;6.10;;;;;;;25.04;54.59;99040.00;5083884;28;20090;-74
2023/06/07 05:20:53;;;;;;;8.30;5.43;;;;;;;25.05;54.26;99047.88;5095162;28;20528;-74
2023/06/07 05:23:18;;;;;;;9.73;4.97;;;;;;;25.06;54.54;99059.41;5101686;28;20432;-73
2023/06/07 05:25:44;;;;;;;7.18;4.80;;;;;;;25.04;54.36;99053.34;5087475;28;20077;-74
2023/06/07 05:28:10;;;;;;;7.63;4.95;;;;;;;25.02;55.11;99055.28;5086832;28;20488;-73
2023/06/07 05:30:36;;;;;;;8.35;4.78;;;;;;;25.03;55.63;99057.00;5088169;28;20407;-71
2023/06/07 05:33:02;;;;;;;9.90;5.47;;;;;;;25.06;55.13;99062.94;5081381;28;20032;-74
2023/06/07 05:35:27;;;;;;;7.60;5.18;;;;;;;25.07;55.54;99063.75;5072083;28;20020;-73
2023/06/07 05:37:52;;;;;;;9.07;5.32;;;;;;;25.06;55.58;99062.06;5072504;28;20032;-73
2023/06/07 05:40:18;;;;;;;7.93;4.88;;;;;;;25.07;55.64;99063.75;5083536;28;20122;-73
2023/06/07 05:42:45;;;;;;;8.90;5.25;;;;;;;25.09;55.99;99061.81;5086092;28;20047;-73
2023/06/07 05:45:10;;;;;;;10.18;5.53;;;;;;;25.12;56.10;99056.22;5089652;28;20107;-74
2023/06/07 05:47:36;;;;;;;8.35;5.18;;;;;;;25.13;56.20;99063.22;5083379;28;20194;-74
2023/06/07 05:50:04;;;;;;;10.35;5.07;;;;;;;25.15;55.91;99057.78;5086463;28;20556;-73
2023/06/07 05:52:29;;;;;;;9.05;5.00;;;;;;;25.16;55.94;99056.78;5087963;28;20073;-75
2023/06/07 05:54:57;;;;;;;8.75;5.00;;;;;;;25.17;55.79;99054.00;5089402;28;20441;-74
2023/06/07 05:57:23;;;;;;;7.07;5.28;;;;;;;25.18;55.86;99053.00;5090435;28;20455;-73
2023/06/07 05:59:48;;;;;;;10.10;5.53;;;;;;;25.23;56.05;99051.78;5091998;28;20020;-73
2023/06/07 06:02:16;;;;;;;6.53;4.70;;;;;;;25.24;55.98;99042.78;5090233;28;20052;-73
2023/06/07 06:04:41;;;;;;;7.88;4.72;;;;;;;25.27;55.76;99047.88;5084944;28;20518;-74
2023/06/07 06:07:08;;;;;;;9.75;4.45;;;;;;;25.26;55.73;99047.03;5089304;28;20024;-73
2023/06/07 06:09:33;;;;;;;11.40;5.47;;;;;;;25.26;55.66;99040.81;5091841;28;20099;-73
2023/06/07 06:11:59;;;;;;;10.68;5.40;;;;;;;25.25;55.69;99033.78;5088975;28;20451;-73
2023/06/07 06:14:25;;;;;;;7.28;4.88;;;;;;;25.25;55.69;99037.31;5091204;28;20044;-73
2023/06/07 06:16:50;;;;;;;6.85;4.72;;;;;;;25.24;56.03;99038.31;5086568;28;20264;-74
2023/06/07 06:19:16;;;;;;;9.60;4.97;;;;;;;25.23;55.76;99044.59;5087827;28;20043;-73
2023/06/07 06:21:42;;;;;;;8.07;4.65;;;;;;;25.23;55.73;99041.09;5087674;28;20032;-73
2023/06/07 06:24:07;;;;;;;8.32;5.03;;;;;;;25.25;55.37;99049.81;5091736;28;20446;-73
2023/06/07 06:26:33;;;;;;;6.95;4.60;;;;;;;25.25;55.50;99055.16;5091118;28;20085;-74
2023/06/07 06:28:58;;;;;;;7.97;5.30;;;;;;;25.24;55.63;99042.78;5084659;28;20032;-73
2023/06/07 06:31:27;;;;;;;6.05;4.60;;;;;;;25.25;55.63;99044.47;5088184;28;20024;-73
2023/06/07 06:33:52;;;;;;;8.30;4.93;;;;;;;25.25;55.76;99049.81;5089391;28;20028;-74
2023/06/07 06:36:18;;;;;;;6.97;5.00;;;;;;;25.24;55.64;99048.13;5091529;28;20039;-73
2023/06/07 06:38:43;;;;;;;6.93;4.78;;;;;;;25.24;55.50;99056.13;5090250;28;20020;-73
2023/06/07 06:41:10;;;;;;;8.52;4.82;;;;;;;25.25;55.60;99045.34;5090052;28;20059;-73
2023/06/07 06:43:35;;;;;;;6.00;4.53;;;;;;;25.27;55.52;99056.72;5089327;28;20078;-73
2023/06/07 06:46:01;;;;;;;8.05;5.07;;;;;;;25.27;55.21;99047.88;5091297;28;20028;-73
2023/06/07 06:48:26;;;;;;;7.13;4.65;;;;;;;25.28;55.47;99049.56;5087508;28;20062;-74
2023/06/07 06:50:51;;;;;;;5.68;4.78;;;;;;;25.29;55.53;99051.25;5090935;28;20407;-76
2023/06/07 06:53:17;;;;;;;6.18;4.25;;;;;;;25.29;55.16;99048.59;5091733;28;20400;-75
2023/06/07 06:55:42;;;;;;;8.75;5.13;;;;;;;25.29;55.45;99045.91;5091754;28;20477;-75
2023/06/07 06:58:08;;;;;;;8.23;4.75;;;;;;;25.28;54.96;99046.91;5091569;28;20048;-75
2023/06/07 07:00:35;;;;;;;7.72;5.15;;;;;;;25.30;55.59;99048.47;5091852;28;20039;-75
2023/06/07 07:03:02;;;;;;;6.70;5.15;;;;;;;25.34;55.41;99049.88;5091373;28;20063;-76
2023/06/07 07:05:27;;;;;;;9.45;5.22;;;;;;;25.40;55.00;99039.63;5091436;28;20035;-75
2023/06/07 07:07:53;;;;;;;8.93;4.80;;;;;;;25.39;54.77;99036.13;5091787;28;20028;-76
2023/06/07 07:10:18;;;;;;;8.77;5.53;;;;;;;25.42;54.52;99030.50;5091784;28;20777;-75
2023/06/07 07:12:44;;;;;;;6.97;4.28;;;;;;;25.42;54.63;99035.03;5091919;28;20028;-75
2023/06/07 07:15:09;;;;;;;6.82;5.00;;;;;;;25.42;54.79;99033.19;5091897;28;20028;-75
2023/06/07 07:17:43;;;;;;;6.93;4.57;;;;;;;25.43;55.04;99036.72;5091288;28;20103;-75
2023/06/07 07:20:10;;;;;;;8.10;5.07;;;;;;;25.45;54.60;99034.75;5091515;28;20100;-75
2023/06/07 07:22:36;;;;;;;6.80;4.65;;;;;;;25.45;55.14;99032.94;5091510;28;20017;-75
2023/06/07 07:25:01;;;;;;;7.25;4.38;;;;;;;25.44;54.85;99039.25;5091764;28;20030;-75
2023/06/07 07:27:27;;;;;;;7.43;5.28;;;;;;;25.50;54.68;99037.00;5091591;28;20416;-76
2023/06/07 07:29:52;;;;;;;6.13;4.55;;;;;;;25.55;54.21;99045.50;5091501;28;20111;-75
2023/06/07 07:32:18;;;;;;;7.68;4.85;;;;;;;25.57;54.51;99038.22;5090995;28;20035;-75
2023/06/07 07:34:43;;;;;;;6.25;4.57;;;;;;;25.61;54.24;99044.97;5093071;28;20028;-75
2023/06/07 07:37:09;;;;;;;5.53;4.00;;;;;;;25.63;54.08;99048.38;5094841;28;20032;-76
2023/06/07 07:39:34;;;;;;;7.28;5.28;;;;;;;25.66;53.88;99048.06;5086718;28;20020;-76
2023/06/07 07:42:02;;;;;;;6.25;4.90;;;;;;;25.68;54.32;99048.81;5074466;28;20032;-75
2023/06/07 07:44:28;;;;;;;6.68;4.85;;;;;;;25.69;53.91;99042.47;5074452;28;20032;-76
2023/06/07 07:46:54;;;;;;;6.03;4.63;;;;;;;25.70;53.86;99044.16;5088537;28;20028;-76
2023/06/07 07:49:19;;;;;;;5.78;4.68;;;;;;;25.72;53.91;99052.06;5088629;28;20030;-76
2023/06/07 07:51:45;;;;;;;6.18;5.00;;;;;;;25.73;53.86;99043.06;5077156;28;20172;-76
2023/06/07 07:54:10;;;;;;;6.25;4.72;;;;;;;25.74;53.84;99042.06;5074274;28;20024;-75
2023/06/07 07:56:35;;;;;;;6.75;4.57;;;;;;;25.76;53.67;99047.28;5086204;28;20072;-75
2023/06/07 07:59:01;;;;;;;5.25;4.43;;;;;;;25.77;53.71;99057.00;5094101;28;20024;-75
2023/06/07 08:01:27;;;;;;;9.38;5.30;;;;;;;25.76;53.67;99052.63;5087403;28;20424;-75
2023/06/07 08:03:52;;;;;;;7.18;4.47;;;;;;;25.78;53.81;99039.97;5074316;28;20396;-75
2023/06/07 08:06:18;;;;;;;6.95;4.75;;;;;;;25.79;53.56;99049.66;5074202;28;20205;-75
2023/06/07 08:08:46;;;;;;;7.32;5.10;;;;;;;25.79;53.94;99047.00;5073969;28;20032;-75
2023/06/07 08:11:11;;;;;;;9.77;5.10;;;;;;;25.78;53.81;99043.50;5074002;28;20117;-75
2023/06/07 08:13:37;;;;;;;8.70;5.60;;;;;;;25.81;53.68;99055.75;5074181;28;20063;-75
2023/06/07 08:16:02;;;;;;;7.18;5.20;;;;;;;25.81;53.87;99051.22;5073741;28;20388;-76
2023/06/07 08:18:28;;;;;;;8.63;5.10;;;;;;;25.82;53.85;99058.25;5073817;28;20031;-75
2023/06/07 08:20:53;;;;;;;5.75;4.63;;;;;;;25.82;53.85;99046.75;5077939;28;20024;-75
2023/06/07 08:23:18;;;;;;;9.50;5.40;;;;;;;25.83;53.64;99049.28;5090379;28;20061;-75
2023/06/07 08:25:44;;;;;;;6.82;5.60;;;;;;;25.83;53.53;99043.09;5073685;28;20025;-75
2023/06/07 08:28:09;;;;;;;7.60;4.75;;;;;;;25.86;53.59;99040.16;5073844;28;20051;-75
2023/06/07 08:30:35;;;;;;;7.03;5.38;;;;;;;25.85;54.00;99047.31;5073585;28;20365;-75
2023/06/07 08:33:01;;;;;;;8.68;6.05;;;;;;;25.86;54.02;99048.16;5073520;28;20033;-76
2023/06/07 08:35:26;;;;;;;8.23;5.47;;;;;;;25.87;53.64;99044.50;5073537;28;20469;-75
2023/06/07 08:37:51;;;;;;;8.40;5.20;;;;;;;25.87;53.77;99049.84;5091335;28;20017;-75
2023/06/07 08:40:21;;;;;;;7.25;5.35;;;;;;;25.89;53.95;99041.72;5086288;28;20475;-75
2023/06/07 08:42:47;;;;;;;8.07;5.22;;;;;;;25.90;53.66;99046.91;5073133;28;20560;-75
2023/06/07 08:45:15;;;;;;;6.93;5.30;;;;;;;25.88;53.93;99046.19;5073288;28;20107;-75
2023/06/07 08:47:43;;;;;;;6.75;5.03;;;;;;;25.89;53.87;99047.06;5087476;28;20043;-75
2023/06/07 08:50:13;;;;;;;8.50;5.90;;;;;;;25.90;53.60;99040.72;5073214;28;20089;-75
2023/06/07 08:52:41;;;;;;;5.93;4.95;;;;;;;25.91;53.78;99037.06;5082649;28;20020;-75
2023/06/07 08:55:11;;;;;;;6.70;4.97;;;;;;;25.90;53.93;99038.88;5093002;28;20032;-76
2023/06/07 08:57:37;;;;;;;5.65;4.93;;;;;;;25.92;53.86;99036.06;5072655;28;20064;-75
2023/06/07 09:00:06;;;;;;;6.45;5.25;;;;;;;25.93;53.94;99038.63;5073283;28;20025;-75
2023/06/07 09:02:32;;;;;;;7.22;4.80;;;;;;;25.93;53.90;99038.63;5072933;28;20036;-74
2023/06/07 09:05:01;;;;;;;6.50;5.32;;;;;;;25.94;53.60;99040.31;5071736;28;20108;-74
2023/06/07 09:07:27;;;;;;;5.85;4.75;;;;;;;25.95;53.56;99036.66;5090641;28;20078;-75
2023/06/07 09:09:52;;;;;;;6.53;4.82;;;;;;;25.95;53.45;99030.47;5093068;28;20055;-75
2023/06/07 09:12:18;;;;;;;6.43;5.45;;;;;;;25.95;53.57;99042.00;5086702;28;20025;-75
2023/06/07 09:14:46;;;;;;;7.07;4.97;;;;;;;25.95;53.53;99042.00;5071661;28;20400;-75
2023/06/07 09:17:12;;;;;;;6.97;5.53;;;;;;;25.96;54.02;99038.31;5084949;28;20107;-75
2023/06/07 09:19:42;;;;;;;7.05;4.90;;;;;;;25.97;54.04;99037.38;5099349;28;20114;-75
2023/06/07 09:22:09;;;;;;;5.72;5.00;;;;;;;25.96;53.90;99034.81;5113164;28;20446;-75
2023/06/07 09:24:36;;;;;;;7.35;5.28;;;;;;;25.98;53.66;99035.53;5113337;28;20095;-75
2023/06/07 09:27:03;;;;;;;7.00;4.95;;;;;;;25.99;53.89;99026.53;5112982;28;20035;-74
2023/06/07 09:29:29;;;;;;;6.57;5.15;;;;;;;25.98;54.01;99030.19;5113143;28;20028;-75
2023/06/07 09:32:18;;;;;;;6.80;4.88;;;;;;;26.00;53.61;99031.75;5113208;28;20069;-74
2023/06/07 09:34:44;;;;;;;6.05;5.07;;;;;;;26.03;53.74;99035.09;5113029;28;20399;-75
2023/06/07 09:37:09;;;;;;;6.75;5.10;;;;;;;26.03;53.50;99037.78;5087262;28;20488;-74
2023/06/07 09:39:37;;;;;;;6.55;5.05;;;;;;;26.04;53.50;99031.47;5097291;28;20062;-75
2023/06/07 09:42:14;;;;;;;5.57;4.50;;;;;;;26.03;53.62;99025.28;5112639;28;20036;-75
2023/06/07 09:44:40;;;;;;;6.40;4.95;;;;;;;26.05;53.45;99025.13;5105429;28;20111;-77
2023/06/07 09:47:06;;;;;;;7.18;4.95;;;;;;;26.05;53.77;99025.13;5075932;28;20669;-77
2023/06/07 09:49:34;;;;;;;5.97;5.00;;;;;;;26.07;53.51;99028.50;5084502;28;20487;-77
2023/06/07 09:52:04;;;;;;;5.60;4.60;;;;;;;26.07;53.54;99015.16;5093070;28;20031;-77
2023/06/07 09:54:44;;;;;;;7.00;4.82;;;;;;;26.09;53.30;99021.19;5089369;28;20028;-77
2023/06/07 09:57:27;;;;;;;6.05;4.53;;;;;;;26.10;53.88;99022.91;5089911;28;20055;-78
2023/06/07 10:00:14;;;;;;;6.88;4.47;;;;;;;26.09;53.85;99016.69;5091898;28;20035;-79
2023/06/07 10:02:42;;;;;;;6.40;4.57;;;;;;;26.10;53.98;99006.88;5091970;28;20103;-77
2023/06/07 10:05:09;;;;;;;7.35;4.55;;;;;;;26.13;53.46;99014.59;5092289;28;20107;-77
2023/06/07 10:07:44;;;;;;;7.18;4.40;;;;;;;26.14;53.57;99013.59;5085159;28;20028;-76
2023/06/07 10:10:13;;;;;;;6.75;5.22;;;;;;;26.16;53.92;99014.31;5078653;28;20115;-77
2023/06/07 10:12:41;;;;;;;6.20;5.43;;;;;;;26.16;54.05;98998.28;5086777;28;20511;-77
2023/06/07 10:15:10;;;;;;;7.45;5.13;;;;;;;26.18;54.14;98998.13;5095287;28;20019;-78
2023/06/07 10:17:48;;;;;;;6.82;4.82;;;;;;;26.20;53.73;98997.00;5091385;28;20091;-76
2023/06/07 10:20:26;;;;;;;6.70;5.13;;;;;;;26.22;53.94;99003.06;5088350;28;20533;-78
2023/06/07 10:22:58;;;;;;;7.40;4.32;;;;;;;26.22;53.57;98997.72;5091720;28;20133;-77
2023/06/07 10:25:26;;;;;;;5.90;4.50;;;;;;;26.24;53.50;98998.44;5091475;28;20024;-74
2023/06/07 10:28:24;;;;;;;5.22;4.45;;;;;;;26.26;53.31;99001.81;5091976;28;20024;-73
2023/06/07 10:31:03;;;;;;;5.88;4.47;;;;;;;26.27;53.48;98992.84;5028830;28;20052;-73
2023/06/07 10:33:30;;;;;;;6.07;4.05;;;;;;;26.29;53.35;98995.34;5029084;28;20117;-73
2023/06/07 10:35:57;;;;;;;5.75;4.05;;;;;;;26.30;53.30;98993.53;5028883;28;20026;-74
2023/06/07 10:38:24;;;;;;;5.75;4.10;;;;;;;26.32;53.36;98999.56;5009020;28;20076;-74
2023/06/07 10:40:51;;;;;;;5.78;4.00;;;;;;;26.33;53.39;98993.28;5025998;28;20029;-74
2023/06/07 10:43:17;;;;;;;5.30;3.67;;;;;;;26.35;53.18;98994.78;5028639;28;20053;-74
2023/06/07 10:45:42;;;;;;;5.68;4.10;;;;;;;26.38;53.20;99009.72;5028416;28;20107;-73
2023/06/07 10:48:37;;;;;;;6.13;4.00;;;;;;;26.39;53.29;98995.38;5026785;28;20048;-74
2023/06/07 10:51:03;;;;;;;5.60;3.92;;;;;;;26.41;52.89;98988.06;5028783;28;20025;-74
2023/06/07 10:53:55;;;;;;;4.90;3.90;;;;;;;26.40;53.15;98987.19;5028290;28;20044;-74
2023/06/07 10:56:32;;;;;;;5.97;4.15;;;;;;;26.44;52.91;98977.06;5020781;28;20425;-74
2023/06/07 10:59:21;;;;;;;4.78;3.70;;;;;;;26.45;53.00;98984.13;5027180;28;20033;-73
2023/06/07 11:01:49;;;;;;;7.47;4.28;;;;;;;26.47;52.94;98986.63;5029097;28;20045;-73
2023/06/07 11:04:39;;;;;;;5.85;3.83;;;;;;;26.48;52.87;98983.81;5029181;28;20533;-74
2023/06/07 11:07:32;;;;;;;4.75;3.60;;;;;;;26.50;52.77;98975.66;5076498;28;20043;-75
2023/06/07 11:10:00;;;;;;;7.68;4.15;;;;;;;26.52;52.71;98985.22;5093539;28;20421;-74
2023/06/07 11:12:35;;;;;;;5.25;4.13;;;;;;;26.52;52.67;98979.03;5095395;28;20498;-75
2023/06/07 11:15:20;;;;;;;6.05;4.00;;;;;;;26.53;52.60;98962.84;5095528;28;20023;-74
2023/06/07 11:17:53;;;;;;;6.03;4.22;;;;;;;26.54;52.37;98972.53;5095269;28;20020;-74
2023/06/07 11:20:36;;;;;;;5.53;3.70;;;;;;;26.57;52.56;98965.25;5095016;28;20063;-76
2023/06/07 11:23:27;;;;;;;7.00;3.63;;;;;;;26.58;52.54;98961.56;5094625;28;20453;-74
2023/06/07 11:25:54;;;;;;;5.53;4.03;;;;;;;26.59;52.26;98969.47;5095179;28;20035;-75
2023/06/07 11:28:31;;;;;;;5.25;3.72;;;;;;;26.60;52.51;98964.94;5075771;28;20027;-75
2023/06/07 11:30:58;;;;;;;5.53;4.10;;;;;;;26.61;52.52;98978.19;5074717;28;20032;-74
2023/06/07 11:33:25;;;;;;;6.03;3.78;;;;;;;26.64;52.65;98966.34;5074741;28;20029;-74
2023/06/07 11:35:52;;;;;;;6.05;4.78;;;;;;;26.65;52.31;98974.25;5074651;28;20025;-75
2023/06/07 11:38:18;;;;;;;5.78;4.05;;;;;;;26.67;52.32;98966.91;5093133;28;20396;-75